sensor_id;sensor_type;location;lat;lon;timestamp;P1;durP1;ratioP1;P2;durP2;ratioP2
4742;SDS011;24293;48.154;7.748;2023-06-24T00:00:34;9.40;;;6.90;;
4742;SDS011;24293;48.154;7.748;2023-06-24T00:03:03;8.77;;;5.63;;
4742;SDS011;24293;48.154;7.748;2023-06-24T00:05:32;12.57;;;6.20;;
4742;SDS011;24293;48.154;7.748;2023-06-24T00:07:59;9.03;;;5.70;;
4742;SDS011;24293;48.154;7.748;2023-06-24T00:10:27;7.83;;;5.40;;
4742;SDS011;24293;48.154;7.748;2023-06-24T00:12:53;10.50;;;6.73;;
4742;SDS011;24293;48.154;7.748;2023-06-24T00:15:20;9.60;;;6.43;;
4742;SDS011;24293;48.154;7.748;2023-06-24T00:17:46;10.20;;;6.23;;
4742;SDS011;24293;48.154;7.748;2023-06-24T00:20:15;24.93;;;15.03;;
4742;SDS011;24293;48.154;7.748;2023-06-24T00:22:43;16.50;;;9.73;;
4742;SDS011;24293;48.154;7.748;2023-06-24T00:25:14;17.50;;;10.47;;
4742;SDS011;24293;48.154;7.748;2023-06-24T00:27:40;10.80;;;7.43;;
4742;SDS011;24293;48.154;7.748;2023-06-24T00:30:07;11.03;;;6.20;;
4742;SDS011;24293;48.154;7.748;2023-06-24T00:32:34;8.50;;;5.10;;
4742;SDS011;24293;48.154;7.748;2023-06-24T00:35:00;10.93;;;5.73;;
4742;SDS011;24293;48.154;7.748;2023-06-24T00:37:28;13.83;;;6.20;;
4742;SDS011;24293;48.154;7.748;2023-06-24T00:39:55;11.30;;;5.90;;
4742;SDS011;24293;48.154;7.748;2023-06-24T00:42:21;8.83;;;5.23;;
4742;SDS011;24293;48.154;7.748;2023-06-24T00:44:48;9.27;;;6.10;;
4742;SDS011;24293;48.154;7.748;2023-06-24T00:47:14;7.10;;;5.40;;
4742;SDS011;24293;48.154;7.748;2023-06-24T00:49:41;9.90;;;6.17;;
4742;SDS011;24293;48.154;7.748;2023-06-24T00:52:10;9.90;;;5.50;;
4742;SDS011;24293;48.154;7.748;2023-06-24T00:54:42;9.80;;;5.20;;
4742;SDS011;24293;48.154;7.748;2023-06-24T00:57:08;8.70;;;5.27;;
4742;SDS011;24293;48.154;7.748;2023-06-24T00:59:35;10.23;;;6.37;;
4742;SDS011;24293;48.154;7.748;2023-06-24T01:02:02;8.50;;;6.23;;
4742;SDS011;24293;48.154;7.748;2023-06-24T01:04:29;9.33;;;6.30;;
4742;SDS011;24293;48.154;7.748;2023-06-24T01:06:56;9.70;;;6.13;;
4742;SDS011;24293;48.154;7.748;2023-06-24T01:09:23;7.67;;;5.60;;
4742;SDS011;24293;48.154;7.748;2023-06-24T01:11:51;8.83;;;5.40;;
4742;SDS011;24293;48.154;7.748;2023-06-24T01:14:17;9.90;;;5.97;;
4742;SDS011;24293;48.154;7.748;2023-06-24T01:16:48;9.80;;;5.53;;
4742;SDS011;24293;48.154;7.748;2023-06-24T01:19:23;10.43;;;6.67;;
4742;SDS011;24293;48.154;7.748;2023-06-24T01:21:58;13.33;;;6.30;;
4742;SDS011;24293;48.154;7.748;2023-06-24T01:24:38;9.67;;;6.13;;
4742;SDS011;24293;48.154;7.748;2023-06-24T01:27:22;8.90;;;6.03;;
4742;SDS011;24293;48.154;7.748;2023-06-24T01:32:38;11.70;;;4.73;;
4742;SDS011;24293;48.154;7.748;2023-06-24T01:35:06;7.70;;;5.43;;
4742;SDS011;24293;48.154;7.748;2023-06-24T01:37:35;8.40;;;6.03;;
4742;SDS011;24293;48.154;7.748;2023-06-24T01:40:05;8.10;;;5.70;;
4742;SDS011;24293;48.154;7.748;2023-06-24T01:42:35;11.90;;;5.63;;
4742;SDS011;24293;48.154;7.748;2023-06-24T01:45:03;15.40;;;7.00;;
4742;SDS011;24293;48.154;7.748;2023-06-24T01:47:31;9.73;;;5.70;;
4742;SDS011;24293;48.154;7.748;2023-06-24T01:49:59;9.77;;;5.80;;
4742;SDS011;24293;48.154;7.748;2023-06-24T01:52:27;13.33;;;6.47;;
4742;SDS011;24293;48.154;7.748;2023-06-24T01:54:55;9.23;;;6.10;;
4742;SDS011;24293;48.154;7.748;2023-06-24T01:57:22;15.67;;;7.07;;
4742;SDS011;24293;48.154;7.748;2023-06-24T01:59:49;8.77;;;5.67;;
4742;SDS011;24293;48.154;7.748;2023-06-24T02:02:17;10.13;;;6.20;;
4742;SDS011;24293;48.154;7.748;2023-06-24T02:04:45;9.33;;;6.20;;
4742;SDS011;24293;48.154;7.748;2023-06-24T02:07:13;11.30;;;5.10;;
4742;SDS011;24293;48.154;7.748;2023-06-24T02:09:40;12.00;;;6.37;;
4742;SDS011;24293;48.154;7.748;2023-06-24T02:12:08;9.50;;;6.30;;
4742;SDS011;24293;48.154;7.748;2023-06-24T02:14:35;12.90;;;7.63;;
4742;SDS011;24293;48.154;7.748;2023-06-24T02:17:03;8.60;;;6.00;;
4742;SDS011;24293;48.154;7.748;2023-06-24T02:19:30;10.00;;;5.93;;
4742;SDS011;24293;48.154;7.748;2023-06-24T02:21:58;11.43;;;6.00;;
4742;SDS011;24293;48.154;7.748;2023-06-24T02:24:26;8.80;;;6.10;;
4742;SDS011;24293;48.154;7.748;2023-06-24T02:26:54;9.13;;;6.10;;
4742;SDS011;24293;48.154;7.748;2023-06-24T02:29:21;9.97;;;5.93;;
4742;SDS011;24293;48.154;7.748;2023-06-24T02:31:48;9.70;;;6.37;;
4742;SDS011;24293;48.154;7.748;2023-06-24T02:34:15;9.90;;;5.47;;
4742;SDS011;24293;48.154;7.748;2023-06-24T02:36:42;9.17;;;5.93;;
4742;SDS011;24293;48.154;7.748;2023-06-24T02:39:08;9.90;;;6.40;;
4742;SDS011;24293;48.154;7.748;2023-06-24T02:41:36;12.83;;;6.83;;
4742;SDS011;24293;48.154;7.748;2023-06-24T02:44:02;8.57;;;5.60;;
4742;SDS011;24293;48.154;7.748;2023-06-24T02:46:29;9.70;;;5.70;;
4742;SDS011;24293;48.154;7.748;2023-06-24T02:48:58;10.87;;;6.03;;
4742;SDS011;24293;48.154;7.748;2023-06-24T02:51:25;8.60;;;5.63;;
4742;SDS011;24293;48.154;7.748;2023-06-24T02:53:52;10.30;;;5.73;;
4742;SDS011;24293;48.154;7.748;2023-06-24T02:56:18;7.40;;;5.47;;
4742;SDS011;24293;48.154;7.748;2023-06-24T02:58:48;10.17;;;6.20;;
4742;SDS011;24293;48.154;7.748;2023-06-24T03:01:17;8.33;;;5.97;;
4742;SDS011;24293;48.154;7.748;2023-06-24T03:03:50;11.50;;;5.83;;
4742;SDS011;24293;48.154;7.748;2023-06-24T03:06:17;8.73;;;5.73;;
4742;SDS011;24293;48.154;7.748;2023-06-24T03:08:44;10.30;;;5.90;;
4742;SDS011;24293;48.154;7.748;2023-06-24T03:11:12;9.77;;;6.07;;
4742;SDS011;24293;48.154;7.748;2023-06-24T03:13:38;11.63;;;6.40;;
4742;SDS011;24293;48.154;7.748;2023-06-24T03:16:06;10.40;;;5.90;;
4742;SDS011;24293;48.154;7.748;2023-06-24T03:18:37;7.67;;;5.47;;
4742;SDS011;24293;48.154;7.748;2023-06-24T03:21:03;9.00;;;5.53;;
4742;SDS011;24293;48.154;7.748;2023-06-24T03:23:30;9.20;;;5.87;;
4742;SDS011;24293;48.154;7.748;2023-06-24T03:25:57;8.83;;;5.97;;
4742;SDS011;24293;48.154;7.748;2023-06-24T03:28:23;9.60;;;6.50;;
4742;SDS011;24293;48.154;7.748;2023-06-24T03:30:50;7.90;;;5.80;;
4742;SDS011;24293;48.154;7.748;2023-06-24T03:33:17;12.70;;;5.60;;
4742;SDS011;24293;48.154;7.748;2023-06-24T03:35:44;10.57;;;7.00;;
4742;SDS011;24293;48.154;7.748;2023-06-24T03:38:10;10.17;;;6.13;;
4742;SDS011;24293;48.154;7.748;2023-06-24T03:40:37;9.30;;;5.63;;
4742;SDS011;24293;48.154;7.748;2023-06-24T03:43:03;14.10;;;5.40;;
4742;SDS011;24293;48.154;7.748;2023-06-24T03:45:30;14.77;;;6.40;;
4742;SDS011;24293;48.154;7.748;2023-06-24T03:47:56;8.53;;;5.67;;
4742;SDS011;24293;48.154;7.748;2023-06-24T03:50:24;10.40;;;6.30;;
4742;SDS011;24293;48.154;7.748;2023-06-24T03:52:51;9.47;;;5.90;;
4742;SDS011;24293;48.154;7.748;2023-06-24T03:55:17;13.80;;;6.07;;
4742;SDS011;24293;48.154;7.748;2023-06-24T03:57:44;10.80;;;6.00;;
4742;SDS011;24293;48.154;7.748;2023-06-24T04:00:10;10.13;;;5.33;;
4742;SDS011;24293;48.154;7.748;2023-06-24T04:02:38;12.50;;;5.93;;
4742;SDS011;24293;48.154;7.748;2023-06-24T04:05:05;9.03;;;5.90;;
4742;SDS011;24293;48.154;7.748;2023-06-24T04:07:33;11.20;;;6.27;;
4742;SDS011;24293;48.154;7.748;2023-06-24T04:10:01;10.50;;;6.53;;
4742;SDS011;24293;48.154;7.748;2023-06-24T04:12:28;10.03;;;6.00;;
4742;SDS011;24293;48.154;7.748;2023-06-24T04:14:54;10.37;;;6.90;;
4742;SDS011;24293;48.154;7.748;2023-06-24T04:17:21;8.60;;;6.10;;
4742;SDS011;24293;48.154;7.748;2023-06-24T04:19:47;10.03;;;6.07;;
4742;SDS011;24293;48.154;7.748;2023-06-24T04:22:14;9.17;;;6.40;;
4742;SDS011;24293;48.154;7.748;2023-06-24T04:24:42;11.83;;;7.00;;
4742;SDS011;24293;48.154;7.748;2023-06-24T04:27:08;10.33;;;7.23;;
4742;SDS011;24293;48.154;7.748;2023-06-24T04:29:35;9.63;;;6.57;;
4742;SDS011;24293;48.154;7.748;2023-06-24T04:32:02;10.20;;;5.70;;
4742;SDS011;24293;48.154;7.748;2023-06-24T04:34:28;10.93;;;6.30;;
4742;SDS011;24293;48.154;7.748;2023-06-24T04:36:55;10.10;;;6.60;;
4742;SDS011;24293;48.154;7.748;2023-06-24T04:39:21;14.23;;;6.57;;
4742;SDS011;24293;48.154;7.748;2023-06-24T04:41:49;11.90;;;6.30;;
4742;SDS011;24293;48.154;7.748;2023-06-24T04:44:16;11.03;;;5.97;;
4742;SDS011;24293;48.154;7.748;2023-06-24T04:46:42;9.13;;;5.73;;
4742;SDS011;24293;48.154;7.748;2023-06-24T04:49:09;10.00;;;6.70;;
4742;SDS011;24293;48.154;7.748;2023-06-24T04:51:35;11.77;;;7.30;;
4742;SDS011;24293;48.154;7.748;2023-06-24T04:54:02;10.43;;;6.83;;
4742;SDS011;24293;48.154;7.748;2023-06-24T04:56:29;9.40;;;6.17;;
4742;SDS011;24293;48.154;7.748;2023-06-24T04:58:57;11.57;;;6.87;;
4742;SDS011;24293;48.154;7.748;2023-06-24T05:01:23;9.80;;;6.37;;
4742;SDS011;24293;48.154;7.748;2023-06-24T05:03:50;11.77;;;6.03;;
4742;SDS011;24293;48.154;7.748;2023-06-24T05:06:16;9.30;;;6.20;;
4742;SDS011;24293;48.154;7.748;2023-06-24T05:08:42;9.60;;;6.40;;
4742;SDS011;24293;48.154;7.748;2023-06-24T05:11:09;19.93;;;7.00;;
4742;SDS011;24293;48.154;7.748;2023-06-24T05:13:35;10.40;;;6.13;;
4742;SDS011;24293;48.154;7.748;2023-06-24T05:16:03;9.93;;;6.30;;
4742;SDS011;24293;48.154;7.748;2023-06-24T05:18:30;11.37;;;6.90;;
4742;SDS011;24293;48.154;7.748;2023-06-24T05:20:57;19.27;;;7.17;;
4742;SDS011;24293;48.154;7.748;2023-06-24T05:23:23;14.37;;;6.60;;
4742;SDS011;24293;48.154;7.748;2023-06-24T05:25:50;12.13;;;7.30;;
4742;SDS011;24293;48.154;7.748;2023-06-24T05:28:16;10.20;;;7.30;;
4742;SDS011;24293;48.154;7.748;2023-06-24T05:30:44;14.97;;;7.80;;
4742;SDS011;24293;48.154;7.748;2023-06-24T05:33:12;12.40;;;8.10;;
4742;SDS011;24293;48.154;7.748;2023-06-24T05:35:39;15.27;;;7.60;;
4742;SDS011;24293;48.154;7.748;2023-06-24T05:38:07;10.73;;;7.60;;
4742;SDS011;24293;48.154;7.748;2023-06-24T05:40:33;13.83;;;8.13;;
4742;SDS011;24293;48.154;7.748;2023-06-24T05:43:00;16.00;;;8.97;;
4742;SDS011;24293;48.154;7.748;2023-06-24T05:45:28;11.53;;;6.83;;
4742;SDS011;24293;48.154;7.748;2023-06-24T05:47:54;13.27;;;7.83;;
4742;SDS011;24293;48.154;7.748;2023-06-24T05:50:22;12.50;;;7.80;;
4742;SDS011;24293;48.154;7.748;2023-06-24T05:52:49;17.73;;;9.23;;
4742;SDS011;24293;48.154;7.748;2023-06-24T05:55:15;12.80;;;8.90;;
4742;SDS011;24293;48.154;7.748;2023-06-24T05:57:41;16.13;;;8.80;;
4742;SDS011;24293;48.154;7.748;2023-06-24T06:00:08;18.50;;;9.80;;
4742;SDS011;24293;48.154;7.748;2023-06-24T06:02:35;14.20;;;9.30;;
4742;SDS011;24293;48.154;7.748;2023-06-24T06:05:02;13.77;;;9.20;;
4742;SDS011;24293;48.154;7.748;2023-06-24T06:07:30;13.70;;;8.90;;
4742;SDS011;24293;48.154;7.748;2023-06-24T06:09:57;14.67;;;8.87;;
4742;SDS011;24293;48.154;7.748;2023-06-24T06:12:23;13.90;;;9.50;;
4742;SDS011;24293;48.154;7.748;2023-06-24T06:14:49;17.40;;;9.70;;
4742;SDS011;24293;48.154;7.748;2023-06-24T06:17:16;14.60;;;8.90;;
4742;SDS011;24293;48.154;7.748;2023-06-24T06:19:42;17.17;;;9.83;;
4742;SDS011;24293;48.154;7.748;2023-06-24T06:22:14;15.60;;;9.10;;
4742;SDS011;24293;48.154;7.748;2023-06-24T06:24:42;15.40;;;9.57;;
4742;SDS011;24293;48.154;7.748;2023-06-24T06:27:09;14.27;;;9.87;;
4742;SDS011;24293;48.154;7.748;2023-06-24T06:29:36;15.03;;;8.33;;
4742;SDS011;24293;48.154;7.748;2023-06-24T06:32:02;14.57;;;9.70;;
4742;SDS011;24293;48.154;7.748;2023-06-24T06:34:29;13.50;;;9.07;;
4742;SDS011;24293;48.154;7.748;2023-06-24T06:36:55;18.27;;;9.77;;
4742;SDS011;24293;48.154;7.748;2023-06-24T06:39:22;12.97;;;8.53;;
4742;SDS011;24293;48.154;7.748;2023-06-24T06:41:50;15.40;;;9.57;;
4742;SDS011;24293;48.154;7.748;2023-06-24T06:44:16;15.00;;;9.47;;
4742;SDS011;24293;48.154;7.748;2023-06-24T06:46:43;15.57;;;10.40;;
4742;SDS011;24293;48.154;7.748;2023-06-24T06:49:09;15.93;;;9.40;;
4742;SDS011;24293;48.154;7.748;2023-06-24T06:51:36;15.87;;;10.20;;
4742;SDS011;24293;48.154;7.748;2023-06-24T06:54:02;15.53;;;9.80;;
4742;SDS011;24293;48.154;7.748;2023-06-24T06:56:29;16.47;;;9.97;;
4742;SDS011;24293;48.154;7.748;2023-06-24T06:58:57;14.30;;;9.97;;
4742;SDS011;24293;48.154;7.748;2023-06-24T07:01:23;19.30;;;9.63;;
4742;SDS011;24293;48.154;7.748;2023-06-24T07:03:51;15.57;;;9.10;;
4742;SDS011;24293;48.154;7.748;2023-06-24T07:06:17;15.57;;;9.20;;
4742;SDS011;24293;48.154;7.748;2023-06-24T07:08:44;14.97;;;8.90;;
4742;SDS011;24293;48.154;7.748;2023-06-24T07:11:10;12.20;;;8.67;;
4742;SDS011;24293;48.154;7.748;2023-06-24T07:13:37;18.03;;;9.73;;
4742;SDS011;24293;48.154;7.748;2023-06-24T07:16:05;18.03;;;9.97;;
4742;SDS011;24293;48.154;7.748;2023-06-24T07:18:31;12.90;;;8.80;;
4742;SDS011;24293;48.154;7.748;2023-06-24T07:20:59;10.93;;;7.80;;
4742;SDS011;24293;48.154;7.748;2023-06-24T07:23:25;14.90;;;10.13;;
4742;SDS011;24293;48.154;7.748;2023-06-24T07:25:52;12.87;;;8.80;;
4742;SDS011;24293;48.154;7.748;2023-06-24T07:28:18;13.93;;;7.53;;
4742;SDS011;24293;48.154;7.748;2023-06-24T07:30:45;11.50;;;6.93;;
4742;SDS011;24293;48.154;7.748;2023-06-24T07:33:13;12.57;;;6.73;;
4742;SDS011;24293;48.154;7.748;2023-06-24T07:35:39;9.40;;;6.20;;
4742;SDS011;24293;48.154;7.748;2023-06-24T07:38:09;10.67;;;6.50;;
4742;SDS011;24293;48.154;7.748;2023-06-24T07:40:35;12.00;;;6.77;;
4742;SDS011;24293;48.154;7.748;2023-06-24T07:43:02;10.20;;;6.40;;
4742;SDS011;24293;48.154;7.748;2023-06-24T07:45:28;9.53;;;6.13;;
4742;SDS011;24293;48.154;7.748;2023-06-24T07:47:54;11.30;;;5.47;;
4742;SDS011;24293;48.154;7.748;2023-06-24T07:50:23;12.80;;;6.30;;
4742;SDS011;24293;48.154;7.748;2023-06-24T07:52:49;7.90;;;5.83;;
4742;SDS011;24293;48.154;7.748;2023-06-24T07:55:18;10.50;;;5.77;;
4742;SDS011;24293;48.154;7.748;2023-06-24T07:57:45;11.73;;;6.27;;
4742;SDS011;24293;48.154;7.748;2023-06-24T08:00:12;8.77;;;5.70;;
4742;SDS011;24293;48.154;7.748;2023-06-24T08:02:39;9.37;;;5.50;;
4742;SDS011;24293;48.154;7.748;2023-06-24T08:05:06;14.53;;;5.50;;
4742;SDS011;24293;48.154;7.748;2023-06-24T08:07:35;12.90;;;6.30;;
4742;SDS011;24293;48.154;7.748;2023-06-24T08:10:02;11.77;;;6.47;;
4742;SDS011;24293;48.154;7.748;2023-06-24T08:12:29;11.50;;;5.50;;
4742;SDS011;24293;48.154;7.748;2023-06-24T08:14:55;13.27;;;6.33;;
4742;SDS011;24293;48.154;7.748;2023-06-24T08:17:22;10.17;;;5.77;;
4742;SDS011;24293;48.154;7.748;2023-06-24T08:19:48;11.87;;;5.50;;
4742;SDS011;24293;48.154;7.748;2023-06-24T08:22:14;8.67;;;5.50;;
4742;SDS011;24293;48.154;7.748;2023-06-24T08:24:42;9.10;;;5.53;;
4742;SDS011;24293;48.154;7.748;2023-06-24T08:27:09;8.20;;;5.33;;
4742;SDS011;24293;48.154;7.748;2023-06-24T08:29:35;6.77;;;4.53;;
4742;SDS011;24293;48.154;7.748;2023-06-24T08:32:03;11.13;;;4.87;;
4742;SDS011;24293;48.154;7.748;2023-06-24T08:34:29;9.47;;;5.30;;
4742;SDS011;24293;48.154;7.748;2023-06-24T08:36:56;9.47;;;5.57;;
4742;SDS011;24293;48.154;7.748;2023-06-24T08:39:22;10.63;;;4.27;;
4742;SDS011;24293;48.154;7.748;2023-06-24T08:41:50;12.53;;;4.40;;
4742;SDS011;24293;48.154;7.748;2023-06-24T08:44:17;5.70;;;4.07;;
4742;SDS011;24293;48.154;7.748;2023-06-24T08:46:43;11.60;;;4.80;;
4742;SDS011;24293;48.154;7.748;2023-06-24T08:49:17;11.07;;;4.40;;
4742;SDS011;24293;48.154;7.748;2023-06-24T08:51:48;8.20;;;4.33;;
4742;SDS011;24293;48.154;7.748;2023-06-24T08:54:15;7.67;;;4.70;;
4742;SDS011;24293;48.154;7.748;2023-06-24T08:56:42;8.83;;;4.60;;
4742;SDS011;24293;48.154;7.748;2023-06-24T08:59:10;9.70;;;4.80;;
4742;SDS011;24293;48.154;7.748;2023-06-24T09:01:36;7.80;;;4.23;;
4742;SDS011;24293;48.154;7.748;2023-06-24T09:04:04;6.57;;;4.30;;
4742;SDS011;24293;48.154;7.748;2023-06-24T09:06:30;8.43;;;4.60;;
4742;SDS011;24293;48.154;7.748;2023-06-24T09:08:57;11.53;;;5.23;;
4742;SDS011;24293;48.154;7.748;2023-06-24T09:11:23;10.05;;;5.28;;
4742;SDS011;24293;48.154;7.748;2023-06-24T09:13:54;7.37;;;4.70;;
4742;SDS011;24293;48.154;7.748;2023-06-24T09:16:21;19.43;;;4.00;;
4742;SDS011;24293;48.154;7.748;2023-06-24T09:18:48;13.50;;;4.93;;
4742;SDS011;24293;48.154;7.748;2023-06-24T09:21:20;8.73;;;4.80;;
4742;SDS011;24293;48.154;7.748;2023-06-24T09:23:47;6.03;;;3.80;;
4742;SDS011;24293;48.154;7.748;2023-06-24T09:26:16;8.17;;;4.80;;
4742;SDS011;24293;48.154;7.748;2023-06-24T09:28:46;6.03;;;4.00;;
4742;SDS011;24293;48.154;7.748;2023-06-24T09:31:13;14.60;;;4.77;;
4742;SDS011;24293;48.154;7.748;2023-06-24T09:33:41;9.80;;;4.00;;
4742;SDS011;24293;48.154;7.748;2023-06-24T09:36:11;8.97;;;6.30;;
4742;SDS011;24293;48.154;7.748;2023-06-24T09:38:38;8.00;;;3.77;;
4742;SDS011;24293;48.154;7.748;2023-06-24T09:41:06;7.27;;;3.87;;
4742;SDS011;24293;48.154;7.748;2023-06-24T09:43:33;6.90;;;4.40;;
4742;SDS011;24293;48.154;7.748;2023-06-24T09:46:00;11.13;;;4.90;;
4742;SDS011;24293;48.154;7.748;2023-06-24T09:48:27;11.70;;;4.50;;
4742;SDS011;24293;48.154;7.748;2023-06-24T09:50:55;7.70;;;4.63;;
4742;SDS011;24293;48.154;7.748;2023-06-24T09:53:23;6.30;;;3.80;;
4742;SDS011;24293;48.154;7.748;2023-06-24T09:55:50;6.40;;;3.90;;
4742;SDS011;24293;48.154;7.748;2023-06-24T09:58:18;6.53;;;4.13;;
4742;SDS011;24293;48.154;7.748;2023-06-24T10:00:44;7.20;;;4.40;;
4742;SDS011;24293;48.154;7.748;2023-06-24T10:03:11;6.90;;;4.43;;
4742;SDS011;24293;48.154;7.748;2023-06-24T10:05:37;6.20;;;4.07;;
4742;SDS011;24293;48.154;7.748;2023-06-24T10:08:06;9.23;;;4.40;;
4742;SDS011;24293;48.154;7.748;2023-06-24T10:10:34;12.07;;;4.00;;
4742;SDS011;24293;48.154;7.748;2023-06-24T10:13:01;7.67;;;4.90;;
4742;SDS011;24293;48.154;7.748;2023-06-24T10:15:27;6.90;;;4.70;;
4742;SDS011;24293;48.154;7.748;2023-06-24T10:17:54;8.47;;;4.93;;
4742;SDS011;24293;48.154;7.748;2023-06-24T10:20:24;10.00;;;4.20;;
4742;SDS011;24293;48.154;7.748;2023-06-24T10:22:51;10.20;;;5.07;;
4742;SDS011;24293;48.154;7.748;2023-06-24T10:25:19;6.80;;;4.40;;
4742;SDS011;24293;48.154;7.748;2023-06-24T10:27:47;7.67;;;4.70;;
4742;SDS011;24293;48.154;7.748;2023-06-24T10:30:19;7.10;;;4.40;;
4742;SDS011;24293;48.154;7.748;2023-06-24T10:32:50;6.97;;;4.27;;
4742;SDS011;24293;48.154;7.748;2023-06-24T10:35:21;7.47;;;5.00;;
4742;SDS011;24293;48.154;7.748;2023-06-24T10:37:53;6.90;;;3.77;;
4742;SDS011;24293;48.154;7.748;2023-06-24T10:40:29;8.30;;;4.17;;
4742;SDS011;24293;48.154;7.748;2023-06-24T10:43:00;10.90;;;5.00;;
4742;SDS011;24293;48.154;7.748;2023-06-24T10:45:28;6.10;;;4.30;;
4742;SDS011;24293;48.154;7.748;2023-06-24T10:47:55;6.87;;;4.23;;
4742;SDS011;24293;48.154;7.748;2023-06-24T10:50:24;9.53;;;4.37;;
4742;SDS011;24293;48.154;7.748;2023-06-24T10:52:51;9.07;;;4.70;;
4742;SDS011;24293;48.154;7.748;2023-06-24T10:55:21;12.80;;;5.47;;
4742;SDS011;24293;48.154;7.748;2023-06-24T10:57:49;8.73;;;5.10;;
4742;SDS011;24293;48.154;7.748;2023-06-24T11:00:15;6.20;;;3.93;;
4742;SDS011;24293;48.154;7.748;2023-06-24T11:02:42;7.63;;;4.27;;
4742;SDS011;24293;48.154;7.748;2023-06-24T11:05:08;7.00;;;5.00;;
4742;SDS011;24293;48.154;7.748;2023-06-24T11:07:35;26.33;;;5.03;;
4742;SDS011;24293;48.154;7.748;2023-06-24T11:10:03;6.70;;;4.20;;
4742;SDS011;24293;48.154;7.748;2023-06-24T11:12:31;6.57;;;4.17;;
4742;SDS011;24293;48.154;7.748;2023-06-24T11:15:00;6.47;;;4.23;;
4742;SDS011;24293;48.154;7.748;2023-06-24T11:17:27;8.23;;;4.80;;
4742;SDS011;24293;48.154;7.748;2023-06-24T11:19:54;5.60;;;4.00;;
4742;SDS011;24293;48.154;7.748;2023-06-24T11:22:21;9.23;;;6.30;;
4742;SDS011;24293;48.154;7.748;2023-06-24T11:24:48;6.83;;;4.00;;
4742;SDS011;24293;48.154;7.748;2023-06-24T11:27:14;6.63;;;3.77;;
4742;SDS011;24293;48.154;7.748;2023-06-24T11:29:40;5.30;;;3.87;;
4742;SDS011;24293;48.154;7.748;2023-06-24T11:32:09;6.20;;;4.30;;
4742;SDS011;24293;48.154;7.748;2023-06-24T11:34:36;7.27;;;4.17;;
4742;SDS011;24293;48.154;7.748;2023-06-24T11:37:09;6.83;;;3.70;;
4742;SDS011;24293;48.154;7.748;2023-06-24T11:39:36;5.87;;;3.80;;
4742;SDS011;24293;48.154;7.748;2023-06-24T11:42:05;8.23;;;4.50;;
4742;SDS011;24293;48.154;7.748;2023-06-24T11:44:32;5.57;;;3.57;;
4742;SDS011;24293;48.154;7.748;2023-06-24T11:47:03;8.10;;;4.40;;
4742;SDS011;24293;48.154;7.748;2023-06-24T11:49:31;7.17;;;4.17;;
4742;SDS011;24293;48.154;7.748;2023-06-24T11:51:58;5.57;;;3.53;;
4742;SDS011;24293;48.154;7.748;2023-06-24T11:54:24;6.03;;;3.77;;
4742;SDS011;24293;48.154;7.748;2023-06-24T11:56:51;6.57;;;4.10;;
4742;SDS011;24293;48.154;7.748;2023-06-24T11:59:18;5.20;;;3.47;;
4742;SDS011;24293;48.154;7.748;2023-06-24T12:01:45;7.40;;;3.37;;
4742;SDS011;24293;48.154;7.748;2023-06-24T12:04:11;6.77;;;3.57;;
4742;SDS011;24293;48.154;7.748;2023-06-24T12:06:40;5.87;;;3.87;;
4742;SDS011;24293;48.154;7.748;2023-06-24T12:09:07;8.40;;;4.27;;
4742;SDS011;24293;48.154;7.748;2023-06-24T12:11:33;7.60;;;4.10;;
4742;SDS011;24293;48.154;7.748;2023-06-24T12:14:00;7.23;;;3.53;;
4742;SDS011;24293;48.154;7.748;2023-06-24T12:16:26;8.33;;;4.00;;
4742;SDS011;24293;48.154;7.748;2023-06-24T12:18:53;6.73;;;4.10;;
4742;SDS011;24293;48.154;7.748;2023-06-24T12:21:20;7.03;;;4.30;;
4742;SDS011;24293;48.154;7.748;2023-06-24T12:23:47;6.03;;;4.13;;
4742;SDS011;24293;48.154;7.748;2023-06-24T12:26:14;7.80;;;4.20;;
4742;SDS011;24293;48.154;7.748;2023-06-24T12:28:41;5.87;;;3.70;;
4742;SDS011;24293;48.154;7.748;2023-06-24T12:31:07;5.53;;;3.30;;
4742;SDS011;24293;48.154;7.748;2023-06-24T12:33:34;7.23;;;4.30;;
4742;SDS011;24293;48.154;7.748;2023-06-24T12:36:00;5.97;;;4.23;;
4742;SDS011;24293;48.154;7.748;2023-06-24T12:38:27;6.10;;;3.70;;
4742;SDS011;24293;48.154;7.748;2023-06-24T12:40:54;6.70;;;3.50;;
4742;SDS011;24293;48.154;7.748;2023-06-24T12:43:21;5.17;;;3.70;;
4742;SDS011;24293;48.154;7.748;2023-06-24T12:45:47;7.40;;;4.23;;
4742;SDS011;24293;48.154;7.748;2023-06-24T12:48:14;5.13;;;3.07;;
4742;SDS011;24293;48.154;7.748;2023-06-24T12:50:40;7.37;;;4.67;;
4742;SDS011;24293;48.154;7.748;2023-06-24T12:53:07;6.63;;;3.77;;
4742;SDS011;24293;48.154;7.748;2023-06-24T12:55:35;6.43;;;4.10;;
4742;SDS011;24293;48.154;7.748;2023-06-24T12:58:03;5.80;;;3.67;;
4742;SDS011;24293;48.154;7.748;2023-06-24T13:00:30;5.60;;;3.50;;
4742;SDS011;24293;48.154;7.748;2023-06-24T13:02:56;6.00;;;3.60;;
4742;SDS011;24293;48.154;7.748;2023-06-24T13:05:22;6.10;;;4.20;;
4742;SDS011;24293;48.154;7.748;2023-06-24T13:07:49;6.53;;;3.50;;
4742;SDS011;24293;48.154;7.748;2023-06-24T13:10:16;6.47;;;4.07;;
4742;SDS011;24293;48.154;7.748;2023-06-24T13:12:43;5.60;;;3.63;;
4742;SDS011;24293;48.154;7.748;2023-06-24T13:15:11;10.67;;;4.30;;
4742;SDS011;24293;48.154;7.748;2023-06-24T13:17:38;4.50;;;3.03;;
4742;SDS011;24293;48.154;7.748;2023-06-24T13:20:05;9.90;;;3.53;;
4742;SDS011;24293;48.154;7.748;2023-06-24T13:22:32;7.37;;;3.87;;
4742;SDS011;24293;48.154;7.748;2023-06-24T13:24:58;5.13;;;2.93;;
4742;SDS011;24293;48.154;7.748;2023-06-24T13:27:25;8.90;;;4.03;;
4742;SDS011;24293;48.154;7.748;2023-06-24T13:29:51;5.17;;;3.20;;
4742;SDS011;24293;48.154;7.748;2023-06-24T13:32:19;5.00;;;3.10;;
4742;SDS011;24293;48.154;7.748;2023-06-24T13:34:46;5.67;;;3.13;;
4742;SDS011;24293;48.154;7.748;2023-06-24T13:37:12;6.40;;;3.40;;
4742;SDS011;24293;48.154;7.748;2023-06-24T13:39:39;7.67;;;3.63;;
4742;SDS011;24293;48.154;7.748;2023-06-24T13:42:05;6.83;;;3.07;;
4742;SDS011;24293;48.154;7.748;2023-06-24T13:44:32;6.13;;;3.70;;
4742;SDS011;24293;48.154;7.748;2023-06-24T13:46:58;4.50;;;2.97;;
4742;SDS011;24293;48.154;7.748;2023-06-24T13:49:27;8.43;;;3.47;;
4742;SDS011;24293;48.154;7.748;2023-06-24T13:51:53;5.40;;;3.57;;
4742;SDS011;24293;48.154;7.748;2023-06-24T13:54:19;5.07;;;2.87;;
4742;SDS011;24293;48.154;7.748;2023-06-24T13:56:46;5.13;;;3.20;;
4742;SDS011;24293;48.154;7.748;2023-06-24T13:59:16;6.97;;;3.50;;
4742;SDS011;24293;48.154;7.748;2023-06-24T14:01:42;5.57;;;3.03;;
4742;SDS011;24293;48.154;7.748;2023-06-24T14:04:08;5.20;;;2.90;;
4742;SDS011;24293;48.154;7.748;2023-06-24T14:06:36;5.63;;;3.57;;
4742;SDS011;24293;48.154;7.748;2023-06-24T14:09:03;4.60;;;3.07;;
4742;SDS011;24293;48.154;7.748;2023-06-24T14:11:29;4.97;;;2.90;;
4742;SDS011;24293;48.154;7.748;2023-06-24T14:13:56;6.00;;;3.30;;
4742;SDS011;24293;48.154;7.748;2023-06-24T14:16:22;5.00;;;3.23;;
4742;SDS011;24293;48.154;7.748;2023-06-24T14:18:49;8.77;;;3.30;;
4742;SDS011;24293;48.154;7.748;2023-06-24T14:21:15;6.23;;;3.50;;
4742;SDS011;24293;48.154;7.748;2023-06-24T14:23:43;10.53;;;4.10;;
4742;SDS011;24293;48.154;7.748;2023-06-24T14:26:09;4.70;;;3.17;;
4742;SDS011;24293;48.154;7.748;2023-06-24T14:28:36;5.27;;;2.80;;
4742;SDS011;24293;48.154;7.748;2023-06-24T14:31:02;5.27;;;3.10;;
4742;SDS011;24293;48.154;7.748;2023-06-24T14:33:29;5.20;;;3.23;;
4742;SDS011;24293;48.154;7.748;2023-06-24T14:35:59;7.90;;;3.50;;
4742;SDS011;24293;48.154;7.748;2023-06-24T14:38:25;6.20;;;3.50;;
4742;SDS011;24293;48.154;7.748;2023-06-24T14:40:53;5.27;;;2.80;;
4742;SDS011;24293;48.154;7.748;2023-06-24T14:43:21;5.53;;;3.30;;
4742;SDS011;24293;48.154;7.748;2023-06-24T14:45:47;6.40;;;3.03;;
4742;SDS011;24293;48.154;7.748;2023-06-24T14:48:14;5.80;;;3.80;;
4742;SDS011;24293;48.154;7.748;2023-06-24T14:50:40;6.97;;;3.50;;
4742;SDS011;24293;48.154;7.748;2023-06-24T14:53:07;5.20;;;3.17;;
4742;SDS011;24293;48.154;7.748;2023-06-24T14:55:33;6.87;;;3.60;;
4742;SDS011;24293;48.154;7.748;2023-06-24T14:58:01;6.27;;;3.60;;